Time;durP1;ratioP1;P1;durP2;ratioP2;P2;SDS_P1;SDS_P2;PMS_P1;PMS_P2;Temp;Humidity;BMP_temperature;BMP_pressure;BME280_temperature;BME280_humidity;BME280_pressure;Samples;Min_cycle;Max_cycle;Signal;HPM_P1;HPM_P2
2021/07/30 00:01:56;;;;;;;3.03;2.22;;;24.90;61.60;;;;;;4992399;28;20429;-67
2021/07/30 00:04:21;;;;;;;2.53;2.17;;;24.90;61.60;;;;;;4987087;28;20441;-66
2021/07/30 00:06:47;;;;;;;2.70;2.20;;;25.00;61.70;;;;;;4991507;28;20398;-66
2021/07/30 00:09:13;;;;;;;2.60;2.40;;;24.90;61.60;;;;;;4989121;28;20402;-64
2021/07/30 00:11:40;;;;;;;5.55;2.30;;;24.90;61.60;;;;;;4993044;28;20477;-66
2021/07/30 00:14:07;;;;;;;2.80;2.40;;;24.90;61.50;;;;;;4993120;28;20402;-66
2021/07/30 00:16:33;;;;;;;2.85;2.30;;;24.90;61.50;;;;;;4987240;28;20485;-67
2021/07/30 00:18:59;;;;;;;2.63;2.40;;;24.90;61.50;;;;;;4987047;28;20406;-67
2021/07/30 00:21:24;;;;;;;2.90;2.30;;;24.90;61.50;;;;;;4987620;28;20413;-67
2021/07/30 00:23:50;;;;;;;2.58;2.15;;;24.90;61.50;;;;;;4991165;28;20909;-66
2021/07/30 00:26:15;;;;;;;2.70;2.40;;;24.90;61.40;;;;;;4983804;28;20465;-64
2021/07/30 00:28:41;;;;;;;2.87;2.50;;;24.90;61.50;;;;;;4995973;28;20401;-67
2021/07/30 00:31:07;;;;;;;3.10;2.50;;;24.90;61.50;;;;;;4984545;28;20395;-67
2021/07/30 00:33:33;;;;;;;2.50;2.23;;;24.90;61.40;;;;;;5019955;28;20418;-63
2021/07/30 00:35:58;;;;;;;2.90;2.42;;;24.90;61.50;;;;;;4991868;28;20874;-67
2021/07/30 00:38:24;;;;;;;3.13;2.37;;;24.80;61.30;;;;;;4993165;28;20389;-67
2021/07/30 00:40:50;;;;;;;2.63;2.30;;;24.80;61.30;;;;;;4990892;28;20895;-64
2021/07/30 00:43:16;;;;;;;2.40;2.10;;;24.80;61.30;;;;;;4990873;28;20663;-67
2021/07/30 00:45:41;;;;;;;3.00;2.30;;;24.80;61.40;;;;;;4990778;28;20481;-66
2021/07/30 00:48:08;;;;;;;2.70;2.20;;;24.80;61.30;;;;;;4989434;28;20767;-64
2021/07/30 00:50:34;;;;;;;2.78;2.22;;;24.80;61.30;;;;;;4996440;28;20499;-68
2021/07/30 00:53:01;;;;;;;2.72;2.20;;;24.80;61.30;;;;;;4994191;28;20392;-66
2021/07/30 00:55:27;;;;;;;2.63;2.25;;;24.80;61.30;;;;;;4987384;28;20440;-67
2021/07/30 00:57:53;;;;;;;3.10;2.20;;;24.80;61.30;;;;;;4992237;28;20395;-66
2021/07/30 01:00:22;;;;;;;2.75;2.20;;;24.80;61.30;;;;;;4993035;28;20381;-66
2021/07/30 01:02:49;;;;;;;2.60;2.33;;;24.80;61.20;;;;;;4992314;28;20429;-63
2021/07/30 01:05:15;;;;;;;2.53;2.22;;;24.80;61.30;;;;;;4994381;28;20813;-67
2021/07/30 01:07:41;;;;;;;3.20;2.20;;;24.80;61.20;;;;;;4994376;28;20400;-68
2021/07/30 01:10:07;;;;;;;2.97;2.25;;;24.80;61.20;;;;;;5020624;28;20417;-67
2021/07/30 01:12:33;;;;;;;3.10;2.42;;;24.80;61.30;;;;;;4988848;28;20396;-67
2021/07/30 01:14:59;;;;;;;2.65;2.15;;;24.80;61.10;;;;;;4984687;28;20924;-66
2021/07/30 01:17:25;;;;;;;2.80;2.50;;;24.80;61.20;;;;;;5022794;28;20437;-67
2021/07/30 01:19:54;;;;;;;2.50;2.22;;;24.80;61.20;;;;;;4988888;28;20388;-67
2021/07/30 01:22:58;;;;;;;2.83;2.30;;;24.80;61.20;;;;;;4986580;28;21219;-64
2021/07/30 01:25:26;;;;;;;3.17;2.35;;;24.80;61.10;;;;;;4990518;28;20387;-67
2021/07/30 01:27:52;;;;;;;2.80;2.20;;;24.70;61.20;;;;;;4991977;28;20398;-67
2021/07/30 01:30:20;;;;;;;2.70;2.30;;;24.70;61.00;;;;;;4990707;28;20397;-63
2021/07/30 01:32:46;;;;;;;2.70;2.10;;;24.70;61.10;;;;;;4986777;28;20402;-67
2021/07/30 01:35:11;;;;;;;3.05;2.20;;;24.80;61.10;;;;;;4988237;28;20410;-63
2021/07/30 01:37:37;;;;;;;2.30;2.10;;;24.70;61.10;;;;;;4989531;28;20413;-67
2021/07/30 01:40:05;;;;;;;2.67;2.35;;;24.70;61.00;;;;;;4996755;28;20400;-67
2021/07/30 01:42:30;;;;;;;2.53;2.15;;;24.70;61.00;;;;;;4991822;28;20857;-63
2021/07/30 01:44:56;;;;;;;2.50;2.20;;;24.70;61.00;;;;;;4995477;28;20396;-67
2021/07/30 01:47:22;;;;;;;3.08;2.40;;;24.70;61.00;;;;;;4990685;28;20926;-67
2021/07/30 01:49:51;;;;;;;2.80;2.47;;;24.70;61.00;;;;;;4995159;28;20397;-63
2021/07/30 01:52:17;;;;;;;2.57;2.30;;;24.70;61.00;;;;;;4994320;28;21058;-68
2021/07/30 01:54:44;;;;;;;2.97;2.20;;;24.70;61.00;;;;;;4991652;28;20411;-67
2021/07/30 01:57:10;;;;;;;2.42;2.10;;;24.70;61.00;;;;;;5024590;28;20398;-66
2021/07/30 01:59:36;;;;;;;3.03;2.45;;;24.70;61.00;;;;;;4996195;28;20390;-67
2021/07/30 02:02:02;;;;;;;2.53;2.20;;;24.70;60.90;;;;;;4993581;28;20844;-67
2021/07/30 02:04:27;;;;;;;2.72;2.40;;;24.70;60.80;;;;;;4992768;28;20410;-66
2021/07/30 02:06:53;;;;;;;3.20;2.40;;;24.70;60.90;;;;;;4992787;28;20405;-62
2021/07/30 02:09:18;;;;;;;2.63;2.20;;;24.70;60.90;;;;;;4992687;28;20398;-67
2021/07/30 02:11:51;;;;;;;2.85;2.17;;;24.70;60.90;;;;;;4992689;28;20394;-67
2021/07/30 02:14:24;;;;;;;2.95;2.28;;;24.70;60.90;;;;;;4992895;28;20394;-66
2021/07/30 02:16:53;;;;;;;2.70;2.30;;;24.60;60.90;;;;;;4993307;28;20404;-65
2021/07/30 02:19:20;;;;;;;2.63;2.30;;;24.70;60.80;;;;;;4994798;28;20463;-67
2021/07/30 02:21:46;;;;;;;2.50;2.30;;;24.60;60.80;;;;;;4994396;28;20410;-66
2021/07/30 02:24:12;;;;;;;3.35;2.15;;;24.70;60.90;;;;;;4993074;28;20767;-64
2021/07/30 02:26:38;;;;;;;3.45;2.28;;;24.60;60.70;;;;;;4992017;28;20385;-65
2021/07/30 02:29:05;;;;;;;2.58;2.28;;;24.60;60.80;;;;;;4992311;28;20517;-65
2021/07/30 02:31:31;;;;;;;3.13;2.40;;;24.70;60.80;;;;;;4989323;28;20391;-67
2021/07/30 02:33:57;;;;;;;2.88;2.33;;;24.60;60.70;;;;;;4996192;28;20483;-67
2021/07/30 02:36:23;;;;;;;2.67;2.30;;;24.60;60.80;;;;;;4987633;28;20486;-66
2021/07/30 02:38:49;;;;;;;3.33;2.35;;;24.60;60.70;;;;;;4992565;28;20418;-66
2021/07/30 02:41:16;;;;;;;2.75;2.00;;;24.60;60.80;;;;;;4992158;28;20398;-64
2021/07/30 02:43:42;;;;;;;3.05;2.25;;;24.60;60.80;;;;;;4990211;28;20434;-64
2021/07/30 02:46:08;;;;;;;3.03;2.40;;;24.60;60.70;;;;;;4994774;28;20383;-67
2021/07/30 02:48:34;;;;;;;2.40;2.15;;;24.60;60.70;;;;;;4993455;28;20414;-68
2021/07/30 02:51:00;;;;;;;2.65;2.08;;;24.60;60.70;;;;;;4991360;28;20401;-66
2021/07/30 02:53:25;;;;;;;2.35;2.00;;;24.60;60.70;;;;;;4993756;28;20403;-65
2021/07/30 02:55:51;;;;;;;2.40;2.07;;;24.60;60.70;;;;;;4993732;28;20397;-67
2021/07/30 02:58:16;;;;;;;2.72;2.10;;;24.60;60.70;;;;;;4988839;28;20857;-62
2021/07/30 03:00:42;;;;;;;2.63;2.08;;;24.60;60.70;;;;;;4995244;28;20393;-66
2021/07/30 03:03:08;;;;;;;2.17;1.90;;;24.60;60.60;;;;;;4991118;28;20422;-67
2021/07/30 03:05:33;;;;;;;2.50;1.77;;;24.60;60.70;;;;;;4990751;28;20439;-68
2021/07/30 03:07:59;;;;;;;2.50;2.10;;;24.60;60.80;;;;;;4989581;28;20398;-67
2021/07/30 03:10:25;;;;;;;2.50;2.08;;;24.60;60.50;;;;;;4993515;28;20392;-67
2021/07/30 03:12:50;;;;;;;4.93;2.23;;;24.50;60.80;;;;;;4993676;28;20440;-65
2021/07/30 03:15:16;;;;;;;3.67;2.23;;;24.50;61.00;;;;;;4990537;28;20394;-63
2021/07/30 03:17:42;;;;;;;2.60;2.30;;;24.50;61.20;;;;;;4993993;28;20416;-66
2021/07/30 03:20:08;;;;;;;3.27;2.37;;;24.50;61.20;;;;;;4988857;28;20430;-67
2021/07/30 03:22:34;;;;;;;3.97;2.50;;;24.60;61.40;;;;;;4997202;28;20432;-65
2021/07/30 03:25:00;;;;;;;3.55;2.50;;;24.60;62.00;;;;;;4964304;28;20399;-63
2021/07/30 03:27:26;;;;;;;3.65;2.35;;;24.60;62.80;;;;;;5033468;28;20395;-67
2021/07/30 03:29:51;;;;;;;3.43;2.40;;;24.60;63.10;;;;;;5015810;28;20428;-68
2021/07/30 03:32:18;;;;;;;2.50;2.20;;;24.60;62.90;;;;;;5010373;28;20919;-67
2021/07/30 03:34:45;;;;;;;2.63;2.22;;;24.60;61.80;;;;;;5015719;28;20463;-67
2021/07/30 03:37:11;;;;;;;4.07;2.50;;;24.60;61.40;;;;;;5009359;28;20394;-64
2021/07/30 03:39:37;;;;;;;3.88;2.40;;;24.60;62.90;;;;;;5009894;28;20412;-66
2021/07/30 03:42:03;;;;;;;2.87;2.40;;;24.60;63.10;;;;;;5013066;28;20415;-67
2021/07/30 03:44:28;;;;;;;2.85;2.10;;;24.60;63.20;;;;;;5013485;28;20791;-67
2021/07/30 03:46:54;;;;;;;2.88;2.20;;;24.60;62.30;;;;;;5031928;28;20383;-67
2021/07/30 03:49:20;;;;;;;3.50;2.25;;;24.60;63.20;;;;;;5008033;28;20397;-64
2021/07/30 03:51:45;;;;;;;3.10;2.50;;;24.70;63.70;;;;;;5006775;28;20388;-64
2021/07/30 03:54:11;;;;;;;3.35;2.40;;;24.70;63.60;;;;;;5016948;28;20472;-65
2021/07/30 03:56:41;;;;;;;2.90;2.20;;;24.70;63.80;;;;;;5012451;28;20399;-67
2021/07/30 03:59:07;;;;;;;3.95;2.60;;;24.70;62.60;;;;;;5014557;28;20871;-67
2021/07/30 04:01:34;;;;;;;3.65;2.50;;;24.60;61.90;;;;;;5004343;28;20408;-63
2021/07/30 04:04:00;;;;;;;4.72;2.70;;;24.60;61.40;;;;;;5009866;28;20500;-68
2021/07/30 04:06:25;;;;;;;5.03;2.60;;;24.60;61.20;;;;;;5016035;28;20467;-68
2021/07/30 04:08:51;;;;;;;5.17;2.63;;;24.60;61.30;;;;;;5009991;28;20464;-67
2021/07/30 04:11:17;;;;;;;5.10;3.00;;;24.60;60.80;;;;;;5011248;28;20388;-65
2021/07/30 04:13:43;;;;;;;5.97;3.10;;;24.50;60.40;;;;;;5010721;28;20405;-67
2021/07/30 04:16:09;;;;;;;4.60;3.17;;;24.50;60.50;;;;;;5004763;28;20400;-68
2021/07/30 04:18:35;;;;;;;4.25;2.90;;;24.50;60.40;;;;;;5003567;28;20412;-67
2021/07/30 04:21:05;;;;;;;4.80;3.10;;;24.40;60.20;;;;;;5009464;28;20393;-69
2021/07/30 04:23:31;;;;;;;4.32;2.97;;;24.50;60.30;;;;;;5011528;28;20513;-68
2021/07/30 04:25:57;;;;;;;4.78;3.13;;;24.50;60.00;;;;;;5005502;28;20387;-67
2021/07/30 04:28:23;;;;;;;4.40;3.20;;;24.40;59.80;;;;;;5015390;28;20400;-65
2021/07/30 04:30:49;;;;;;;4.05;3.20;;;24.40;59.70;;;;;;5008015;28;20384;-67
2021/07/30 04:33:14;;;;;;;5.82;3.40;;;24.40;59.60;;;;;;5009052;28;20397;-67
2021/07/30 04:35:40;;;;;;;5.17;3.60;;;24.30;59.60;;;;;;5006799;28;20397;-68
2021/07/30 04:38:06;;;;;;;5.45;3.60;;;24.40;59.50;;;;;;5018305;28;20399;-65
2021/07/30 04:40:31;;;;;;;4.10;3.40;;;24.30;59.50;;;;;;5009232;28;20396;-64
2021/07/30 04:42:58;;;;;;;4.55;3.00;;;24.40;60.10;;;;;;5009046;28;20776;-63
2021/07/30 04:45:24;;;;;;;4.00;3.40;;;24.30;59.60;;;;;;5002584;28;20472;-66
2021/07/30 04:47:50;;;;;;;5.00;3.47;;;24.30;59.70;;;;;;5009720;28;20389;-65
2021/07/30 04:50:16;;;;;;;3.97;3.33;;;24.30;59.70;;;;;;5010915;28;20950;-65
2021/07/30 04:52:42;;;;;;;5.07;3.40;;;24.30;59.70;;;;;;5011507;28;20389;-68
2021/07/30 04:55:08;;;;;;;4.27;3.20;;;24.30;59.70;;;;;;5011410;28;20400;-68
2021/07/30 04:57:34;;;;;;;5.07;3.50;;;24.30;59.70;;;;;;5011462;28;20876;-68
2021/07/30 04:59:59;;;;;;;4.95;3.60;;;24.30;59.70;;;;;;5010183;28;20384;-67
2021/07/30 05:02:25;;;;;;;5.15;3.70;;;24.30;59.80;;;;;;5009118;28;20420;-68
2021/07/30 05:04:54;;;;;;;4.80;3.70;;;24.20;60.40;;;;;;5008466;28;20404;-68
2021/07/30 05:07:24;;;;;;;5.65;3.90;;;24.30;59.80;;;;;;5011809;28;20394;-67
2021/07/30 05:09:50;;;;;;;5.38;3.63;;;24.20;59.70;;;;;;5007406;28;20456;-63
2021/07/30 05:12:16;;;;;;;5.38;3.83;;;24.20;59.70;;;;;;5007738;28;20475;-69
2021/07/30 05:14:41;;;;;;;5.63;3.63;;;24.20;59.30;;;;;;5021283;28;20862;-68
2021/07/30 05:17:07;;;;;;;6.82;3.50;;;24.20;59.90;;;;;;5016892;28;20459;-68
2021/07/30 05:19:33;;;;;;;6.13;3.20;;;24.20;59.80;;;;;;5016972;28;20402;-65
2021/07/30 05:21:58;;;;;;;5.43;3.20;;;24.20;59.90;;;;;;5008899;28;20768;-66
2021/07/30 05:24:24;;;;;;;4.25;3.35;;;24.20;59.90;;;;;;5007671;28;20393;-68
2021/07/30 05:26:50;;;;;;;5.10;3.40;;;24.20;59.90;;;;;;5016877;28;20468;-67
2021/07/30 05:29:15;;;;;;;4.65;3.40;;;24.20;59.90;;;;;;5008923;28;20804;-67
2021/07/30 05:31:41;;;;;;;4.83;3.47;;;24.20;59.90;;;;;;5006989;28;20415;-66
2021/07/30 05:34:07;;;;;;;4.67;3.40;;;24.20;60.00;;;;;;5010572;28;20400;-68
2021/07/30 05:36:32;;;;;;;4.03;3.00;;;24.20;60.00;;;;;;5019735;28;20393;-63
2021/07/30 05:38:58;;;;;;;4.40;3.27;;;24.20;60.00;;;;;;5013642;28;20403;-68
2021/07/30 05:41:24;;;;;;;5.75;3.70;;;24.20;60.00;;;;;;5015756;28;20761;-63
2021/07/30 05:43:50;;;;;;;4.35;3.30;;;24.20;60.20;;;;;;5012562;28;20404;-65
2021/07/30 05:46:19;;;;;;;4.82;3.60;;;24.20;60.20;;;;;;5013032;28;20407;-66
2021/07/30 05:48:45;;;;;;;4.07;3.60;;;24.20;60.20;;;;;;5017872;28;20450;-68
2021/07/30 05:51:11;;;;;;;5.00;3.45;;;24.20;60.40;;;;;;5011924;28;20479;-68
2021/07/30 05:53:38;;;;;;;4.60;3.60;;;24.20;60.40;;;;;;5011661;28;20397;-66
2021/07/30 05:56:04;;;;;;;4.60;3.28;;;24.20;60.50;;;;;;5015124;28;20450;-68
2021/07/30 05:58:31;;;;;;;4.15;2.90;;;24.20;60.60;;;;;;5030829;28;20395;-68
2021/07/30 06:00:57;;;;;;;4.75;3.20;;;24.20;60.80;;;;;;5011280;28;20424;-65
2021/07/30 06:03:23;;;;;;;5.80;3.20;;;24.20;61.80;;;;;;5013909;28;20897;-67
2021/07/30 06:05:48;;;;;;;4.17;3.13;;;24.20;61.80;;;;;;5009270;28;20506;-68
2021/07/30 06:08:14;;;;;;;4.80;3.10;;;24.20;61.70;;;;;;5012685;28;20393;-68
2021/07/30 06:10:40;;;;;;;5.45;3.20;;;24.20;61.60;;;;;;5011719;28;20502;-67
2021/07/30 06:13:05;;;;;;;5.47;3.10;;;24.20;61.90;;;;;;5009450;28;20484;-66
2021/07/30 06:15:31;;;;;;;4.72;3.17;;;24.20;61.90;;;;;;5012860;28;20394;-65
2021/07/30 06:17:57;;;;;;;4.40;3.33;;;24.20;61.70;;;;;;5008310;28;20441;-65
2021/07/30 06:20:24;;;;;;;4.80;3.60;;;24.20;61.70;;;;;;5012009;28;20397;-69
2021/07/30 06:22:50;;;;;;;5.00;3.50;;;24.30;61.80;;;;;;5021002;28;20473;-68
2021/07/30 06:25:16;;;;;;;4.30;3.60;;;24.30;61.70;;;;;;5008758;28;20384;-64
2021/07/30 06:27:42;;;;;;;5.10;3.80;;;24.20;61.60;;;;;;5011312;28;20421;-68
2021/07/30 06:30:08;;;;;;;4.72;3.70;;;24.20;61.90;;;;;;5005587;28;20458;-67
2021/07/30 06:32:36;;;;;;;4.13;3.60;;;24.20;61.50;;;;;;5012340;28;20399;-68
2021/07/30 06:35:03;;;;;;;4.45;3.60;;;24.20;61.70;;;;;;5011468;28;20393;-68
2021/07/30 06:37:32;;;;;;;4.35;3.90;;;24.20;61.60;;;;;;5012189;28;20928;-62
2021/07/30 06:39:58;;;;;;;6.60;3.67;;;24.30;62.00;;;;;;5011702;28;20399;-67
2021/07/30 06:42:24;;;;;;;4.03;3.57;;;24.30;61.90;;;;;;5009433;28;20426;-68
2021/07/30 06:44:49;;;;;;;4.13;3.25;;;24.20;61.70;;;;;;5014937;28;20782;-65
2021/07/30 06:47:18;;;;;;;5.47;3.20;;;24.30;61.70;;;;;;5007648;28;20403;-68
2021/07/30 06:49:44;;;;;;;3.78;3.13;;;24.30;61.50;;;;;;5014410;28;20387;-66
2021/07/30 06:52:10;;;;;;;4.93;3.07;;;24.30;61.50;;;;;;5018037;28;20412;-63
2021/07/30 06:54:37;;;;;;;4.95;3.10;;;24.20;61.40;;;;;;5012238;28;20442;-69
2021/07/30 06:57:03;;;;;;;5.83;3.20;;;24.30;61.50;;;;;;5012285;28;20479;-66
2021/07/30 06:59:29;;;;;;;4.10;3.07;;;24.20;61.50;;;;;;5015738;28;20406;-68
2021/07/30 07:01:55;;;;;;;3.92;3.00;;;24.30;61.50;;;;;;5009971;28;20415;-68
2021/07/30 07:04:21;;;;;;;3.75;3.08;;;24.30;61.50;;;;;;5017674;28;20403;-63
2021/07/30 07:06:50;;;;;;;3.90;3.20;;;24.30;61.60;;;;;;5014224;28;20394;-68
2021/07/30 07:09:16;;;;;;;3.73;3.13;;;24.30;61.50;;;;;;5016020;28;20399;-68
2021/07/30 07:11:42;;;;;;;3.90;2.90;;;24.30;61.50;;;;;;5007977;28;20410;-63
2021/07/30 07:14:07;;;;;;;3.88;2.95;;;24.20;61.50;;;;;;5016603;28;20400;-69
2021/07/30 07:16:33;;;;;;;3.20;2.90;;;24.30;61.60;;;;;;5005122;28;20399;-68
2021/07/30 07:18:58;;;;;;;3.10;2.80;;;24.30;61.60;;;;;;5011364;28;20420;-68
2021/07/30 07:21:24;;;;;;;3.83;2.95;;;24.20;61.50;;;;;;5013975;28;20397;-68
2021/07/30 07:23:51;;;;;;;4.77;3.00;;;24.30;61.70;;;;;;5011662;28;20393;-67
2021/07/30 07:26:17;;;;;;;4.78;2.70;;;24.20;61.60;;;;;;5015227;28;20510;-68
2021/07/30 07:28:44;;;;;;;12.90;3.40;;;24.30;61.70;;;;;;5008599;28;20494;-67
2021/07/30 07:31:10;;;;;;;7.65;3.38;;;24.30;61.70;;;;;;5007468;28;20827;-67
2021/07/30 07:33:35;;;;;;;10.63;3.50;;;24.30;61.60;;;;;;5011252;28;20391;-68
2021/07/30 07:36:01;;;;;;;5.53;3.00;;;24.30;61.80;;;;;;5014109;28;20393;-68
2021/07/30 07:38:27;;;;;;;8.93;3.20;;;24.30;61.50;;;;;;5006054;28;20393;-65
2021/07/30 07:40:52;;;;;;;8.33;3.20;;;24.30;61.40;;;;;;5002927;28;20455;-66
2021/07/30 07:43:20;;;;;;;4.82;2.90;;;24.30;61.50;;;;;;5004680;28;20423;-67
2021/07/30 07:45:46;;;;;;;6.75;2.90;;;24.30;61.40;;;;;;5010829;28;20399;-65
2021/07/30 07:48:12;;;;;;;4.60;2.83;;;24.30;61.60;;;;;;5010758;28;20397;-64
2021/07/30 07:50:38;;;;;;;4.47;2.85;;;24.30;61.50;;;;;;5006238;28;20407;-65
2021/07/30 07:53:29;;;;;;;4.32;3.10;;;24.30;61.50;;;;;;5006714;28;20487;-67
2021/07/30 07:56:06;;;;;;;4.20;3.00;;;24.30;61.50;;;;;;5010588;28;20395;-67
2021/07/30 07:58:33;;;;;;;5.15;2.90;;;24.30;61.50;;;;;;5007308;28;20446;-67
2021/07/30 08:01:00;;;;;;;4.07;2.83;;;24.30;61.60;;;;;;5020684;28;20387;-67
2021/07/30 08:03:25;;;;;;;4.90;2.90;;;24.30;61.40;;;;;;5010144;28;20415;-69
2021/07/30 08:05:51;;;;;;;3.78;3.00;;;24.30;61.30;;;;;;5005136;28;20458;-68
2021/07/30 08:08:17;;;;;;;4.65;2.80;;;24.30;61.30;;;;;;5018198;28;20486;-65
2021/07/30 08:10:47;;;;;;;3.70;2.87;;;24.30;61.30;;;;;;5009808;28;20379;-65
2021/07/30 08:13:13;;;;;;;3.42;2.60;;;24.30;61.20;;;;;;5014088;28;20399;-63
2021/07/30 08:15:40;;;;;;;2.85;2.50;;;24.30;61.20;;;;;;5016780;28;20478;-67
2021/07/30 08:18:05;;;;;;;3.20;2.65;;;24.30;61.20;;;;;;5012500;28;20522;-64
2021/07/30 08:20:31;;;;;;;3.53;2.80;;;24.30;61.20;;;;;;5012623;28;20446;-68
2021/07/30 08:23:01;;;;;;;3.13;2.60;;;24.30;61.10;;;;;;5004803;28;20431;-64
2021/07/30 08:25:38;;;;;;;3.30;2.70;;;24.30;61.10;;;;;;5003481;28;20421;-64
2021/07/30 08:28:13;;;;;;;4.55;2.97;;;24.30;61.20;;;;;;5002171;28;20440;-64
2021/07/30 08:30:58;;;;;;;3.80;2.50;;;24.30;61.10;;;;;;5001540;28;20976;-64
2021/07/30 08:33:24;;;;;;;3.13;2.80;;;24.30;61.10;;;;;;5006569;28;20392;-67
2021/07/30 08:35:50;;;;;;;3.17;2.80;;;24.30;61.10;;;;;;5002552;28;20405;-65
2021/07/30 08:38:16;;;;;;;3.85;2.60;;;24.30;61.20;;;;;;5002389;28;20413;-68
2021/07/30 08:40:45;;;;;;;3.13;2.70;;;24.30;61.20;;;;;;5005282;28;20405;-64
2021/07/30 08:43:19;;;;;;;3.40;2.55;;;24.30;61.20;;;;;;5003123;28;20432;-68
2021/07/30 08:45:54;;;;;;;3.47;2.70;;;24.30;61.20;;;;;;5004019;28;20892;-66
2021/07/30 08:48:20;;;;;;;2.95;2.50;;;24.30;61.20;;;;;;5004630;28;20438;-69
2021/07/30 08:50:47;;;;;;;2.80;2.50;;;24.30;61.30;;;;;;5005728;28;20439;-68
2021/07/30 08:53:23;;;;;;;3.00;2.50;;;24.30;61.30;;;;;;5009300;28;20423;-68
2021/07/30 08:55:50;;;;;;;3.53;2.50;;;24.30;61.30;;;;;;5008164;28;20441;-68
2021/07/30 08:58:23;;;;;;;2.80;2.40;;;24.30;61.30;;;;;;5007202;28;20905;-64
2021/07/30 09:00:49;;;;;;;4.10;2.50;;;24.30;61.40;;;;;;5012331;28;20424;-68
2021/07/30 09:03:15;;;;;;;4.70;2.83;;;24.30;61.50;;;;;;5012194;28;20424;-63
2021/07/30 09:05:41;;;;;;;3.53;2.72;;;24.30;61.50;;;;;;5007895;28;20399;-68
2021/07/30 09:08:08;;;;;;;3.20;2.90;;;24.30;61.40;;;;;;5003568;28;20958;-68
2021/07/30 09:10:42;;;;;;;5.55;2.95;;;24.30;61.40;;;;;;5004878;28;20387;-69
2021/07/30 09:13:26;;;;;;;3.10;2.80;;;24.30;61.40;;;;;;5007366;28;20520;-69
2021/07/30 09:16:07;;;;;;;3.05;2.60;;;24.30;61.40;;;;;;5018357;28;20463;-69
2021/07/30 09:18:44;;;;;;;3.50;2.70;;;24.30;61.40;;;;;;5004368;28;20412;-66
2021/07/30 09:21:24;;;;;;;3.55;2.83;;;24.30;61.40;;;;;;5002642;28;20408;-70
2021/07/30 09:23:52;;;;;;;4.60;2.90;;;24.30;61.50;;;;;;5003234;28;20897;-68
2021/07/30 09:26:37;;;;;;;3.40;2.85;;;24.30;61.40;;;;;;5006169;28;20772;-69
2021/07/30 09:29:08;;;;;;;3.10;2.80;;;24.40;61.50;;;;;;5019275;28;20391;-66
2021/07/30 09:31:51;;;;;;;3.17;2.53;;;24.30;61.50;;;;;;5007639;28;20540;-65
2021/07/30 09:34:20;;;;;;;4.15;2.92;;;24.40;61.50;;;;;;5008204;28;20405;-69
2021/07/30 09:36:57;;;;;;;3.10;2.80;;;24.30;61.50;;;;;;5013384;28;20392;-67
2021/07/30 09:39:41;;;;;;;3.50;2.95;;;24.30;61.50;;;;;;5006148;28;20404;-66
2021/07/30 09:42:15;;;;;;;3.03;2.58;;;24.30;61.50;;;;;;5005461;28;20417;-66
2021/07/30 09:44:59;;;;;;;3.20;2.55;;;24.40;61.50;;;;;;5013938;28;20393;-67
2021/07/30 09:47:27;;;;;;;3.40;2.53;;;24.30;61.40;;;;;;5007578;28;20407;-65
2021/07/30 09:50:04;;;;;;;2.83;2.50;;;24.40;61.50;;;;;;5004149;28;20481;-64
2021/07/30 09:52:33;;;;;;;4.25;2.60;;;24.30;61.40;;;;;;5006127;28;20399;-69
2021/07/30 09:55:01;;;;;;;3.08;2.67;;;24.30;61.40;;;;;;5012318;28;20384;-69
2021/07/30 09:57:29;;;;;;;3.38;2.70;;;24.30;61.40;;;;;;5007103;28;20859;-69
2021/07/30 10:00:00;;;;;;;3.25;2.70;;;24.30;61.30;;;;;;5011727;28;20401;-69
2021/07/30 10:02:28;;;;;;;3.10;2.70;;;24.40;61.40;;;;;;5009455;28;20494;-68
2021/07/30 10:04:55;;;;;;;2.90;2.60;;;24.40;61.40;;;;;;5008312;28;20895;-67
2021/07/30 10:07:25;;;;;;;3.20;2.85;;;24.30;61.40;;;;;;5009126;28;20412;-67
2021/07/30 10:12:31;;;;;;;3.30;2.67;;;24.30;61.40;;;;;;5012293;28;20956;-65
2021/07/30 10:15:01;;;;;;;3.20;2.90;;;24.40;61.40;;;;;;5009413;28;20779;-69
2021/07/30 10:17:31;;;;;;;2.80;2.50;;;24.40;61.40;;;;;;5007680;28;20437;-69
2021/07/30 10:20:00;;;;;;;2.95;2.60;;;24.40;61.50;;;;;;5008384;28;20405;-70
2021/07/30 10:22:41;;;;;;;3.20;2.60;;;24.40;61.40;;;;;;5009356;28;20426;-67
2021/07/30 10:25:10;;;;;;;3.40;2.90;;;24.40;61.50;;;;;;5009011;28;20424;-67
2021/07/30 10:27:42;;;;;;;3.22;2.85;;;24.40;61.50;;;;;;5013689;28;20528;-67
2021/07/30 10:30:10;;;;;;;3.13;2.83;;;24.40;61.50;;;;;;5007409;28;20867;-67
2021/07/30 10:32:46;;;;;;;3.22;2.80;;;24.40;61.50;;;;;;5006826;28;20388;-64
2021/07/30 10:35:13;;;;;;;3.40;2.70;;;24.40;61.50;;;;;;5011677;28;20419;-64
2021/07/30 10:37:54;;;;;;;3.30;2.90;;;24.40;61.50;;;;;;5008058;28;20392;-64
2021/07/30 10:40:24;;;;;;;3.30;2.75;;;24.40;61.50;;;;;;5012617;28;20737;-64
2021/07/30 10:43:07;;;;;;;2.83;2.53;;;24.40;61.50;;;;;;5007929;28;20483;-67
2021/07/30 10:45:35;;;;;;;2.92;2.60;;;24.40;61.60;;;;;;5006871;28;20451;-69
2021/07/30 10:48:22;;;;;;;2.92;2.63;;;24.40;61.50;;;;;;5006781;28;20401;-68
2021/07/30 10:51:02;;;;;;;2.83;2.50;;;24.40;61.50;;;;;;5005218;28;20401;-67
2021/07/30 10:53:31;;;;;;;3.17;2.80;;;24.40;61.50;;;;;;5004706;28;20410;-68
2021/07/30 10:55:57;;;;;;;3.50;2.72;;;24.40;61.50;;;;;;5007805;28;20456;-65
2021/07/30 10:58:43;;;;;;;4.10;2.80;;;24.40;61.50;;;;;;5005683;28;20393;-68
2021/07/30 11:01:27;;;;;;;3.10;2.78;;;24.40;61.50;;;;;;5006679;28;20810;-69
2021/07/30 11:03:56;;;;;;;3.50;2.85;;;24.40;61.60;;;;;;5007346;28;20424;-65
2021/07/30 11:06:50;;;;;;;3.50;3.00;;;24.50;61.60;;;;;;5007485;28;20500;-69
2021/07/30 11:09:17;;;;;;;2.90;2.60;;;24.40;61.50;;;;;;5024651;28;20985;-69
2021/07/30 11:11:47;;;;;;;2.88;2.58;;;24.40;61.60;;;;;;5006254;28;20388;-68
2021/07/30 11:14:13;;;;;;;3.33;2.70;;;24.50;61.60;;;;;;5009745;28;20922;-68
2021/07/30 11:16:43;;;;;;;3.10;2.70;;;24.50;61.70;;;;;;5005575;28;20389;-69
2021/07/30 11:19:11;;;;;;;3.47;2.97;;;24.40;61.60;;;;;;5010121;28;20958;-64
2021/07/30 11:21:37;;;;;;;3.50;2.60;;;24.50;61.70;;;;;;5018013;28;20876;-69
2021/07/30 11:24:04;;;;;;;4.53;2.85;;;24.40;61.70;;;;;;5011864;28;20403;-63
2021/07/30 11:26:35;;;;;;;3.22;2.72;;;24.60;61.60;;;;;;5006763;28;20975;-65
2021/07/30 11:29:02;;;;;;;3.78;2.70;;;24.60;61.60;;;;;;5004750;28;20804;-69
2021/07/30 11:31:29;;;;;;;3.35;2.85;;;24.60;61.60;;;;;;5004981;28;20399;-67
2021/07/30 11:33:55;;;;;;;3.40;2.80;;;24.60;61.70;;;;;;5005483;28;21376;-64
2021/07/30 11:36:21;;;;;;;3.65;2.67;;;24.60;61.60;;;;;;5005290;28;20408;-70
2021/07/30 11:38:55;;;;;;;3.05;2.72;;;24.60;61.60;;;;;;5007086;28;20763;-64
2021/07/30 11:41:22;;;;;;;3.28;2.97;;;24.60;61.70;;;;;;5007173;28;20393;-69
2021/07/30 11:44:03;;;;;;;3.28;2.80;;;24.60;61.60;;;;;;5008450;28;20592;-68
2021/07/30 11:46:31;;;;;;;3.20;2.60;;;24.60;61.60;;;;;;5006337;28;21512;-67
2021/07/30 11:48:57;;;;;;;4.65;3.00;;;24.60;61.60;;;;;;5006168;28;20396;-66
2021/07/30 11:51:24;;;;;;;3.20;2.72;;;24.60;61.60;;;;;;5010930;28;20401;-68
2021/07/30 11:53:51;;;;;;;3.30;3.00;;;24.60;61.50;;;;;;5007765;28;20400;-67
2021/07/30 11:56:18;;;;;;;3.72;3.10;;;24.60;61.50;;;;;;5002430;28;20944;-68
2021/07/30 11:59:00;;;;;;;3.78;3.00;;;24.60;61.50;;;;;;5011958;28;20894;-69
2021/07/30 12:01:27;;;;;;;3.27;2.80;;;24.60;61.50;;;;;;5011988;28;20821;-66
2021/07/30 12:04:14;;;;;;;4.10;2.45;;;24.60;62.10;;;;;;5011039;28;20416;-69
2021/07/30 12:06:48;;;;;;;6.05;2.90;;;24.60;61.70;;;;;;5004688;28;20405;-68
2021/07/30 12:09:16;;;;;;;4.25;2.78;;;24.60;61.80;;;;;;5012158;28;20388;-66
2021/07/30 12:11:53;;;;;;;4.20;2.90;;;24.70;64.00;;;;;;5008733;28;20397;-68
2021/07/30 12:14:21;;;;;;;6.07;2.95;;;24.70;62.80;;;;;;5013937;28;20878;-69
2021/07/30 12:16:47;;;;;;;4.25;2.75;;;24.70;62.00;;;;;;5008667;28;20428;-66
2021/07/30 12:19:13;;;;;;;3.10;2.67;;;24.70;62.00;;;;;;5015661;28;20500;-68
2021/07/30 12:21:59;;;;;;;3.10;2.70;;;24.70;62.10;;;;;;5009398;28;20456;-68
2021/07/30 12:24:25;;;;;;;4.00;2.83;;;24.90;62.00;;;;;;5010082;28;20848;-65
2021/07/30 12:26:52;;;;;;;4.68;2.70;;;24.90;62.00;;;;;;5009453;28;20433;-69
2021/07/30 12:29:42;;;;;;;3.67;2.70;;;24.90;62.20;;;;;;5005539;28;20493;-66
2021/07/30 12:32:28;;;;;;;3.53;2.60;;;25.00;62.70;;;;;;5013221;28;20820;-69
2021/07/30 12:35:00;;;;;;;4.72;2.75;;;25.20;62.20;;;;;;5011698;28;20393;-66
2021/07/30 12:37:29;;;;;;;3.38;2.53;;;25.30;62.40;;;;;;5012818;28;20878;-69
2021/07/30 12:39:57;;;;;;;3.70;2.78;;;25.40;62.40;;;;;;5013935;28;20393;-69
2021/07/30 12:42:34;;;;;;;3.60;2.70;;;25.50;62.30;;;;;;5005512;28;20429;-69
2021/07/30 12:45:15;;;;;;;3.55;2.60;;;25.60;62.00;;;;;;5011404;28;20385;-66
2021/07/30 12:47:47;;;;;;;3.30;2.60;;;25.60;61.90;;;;;;5008123;28;20445;-67
2021/07/30 12:50:47;;;;;;;3.00;2.30;;;26.20;60.40;;;;;;5003556;28;20388;-66
2021/07/30 12:53:20;;;;;;;3.15;2.58;;;27.10;58.00;;;;;;5023379;28;20473;-69
2021/07/30 12:56:04;;;;;;;3.90;2.75;;;27.50;56.90;;;;;;5003874;28;20491;-68
2021/07/30 12:58:51;;;;;;;3.95;2.60;;;27.70;56.20;;;;;;5006271;28;20443;-69